sensor_id;sensor_type;location;lat;lon;timestamp;temperature;humidity
8422;DHT22;4248;48.196;10.924;2022-07-10T00:01:07;17.70;41.10
8422;DHT22;4248;48.196;10.924;2022-07-10T00:03:33;17.60;41.10
8422;DHT22;4248;48.196;10.924;2022-07-10T00:05:59;17.60;41.00
8422;DHT22;4248;48.196;10.924;2022-07-10T00:08:25;17.50;41.40
8422;DHT22;4248;48.196;10.924;2022-07-10T00:10:50;17.30;43.00
8422;DHT22;4248;48.196;10.924;2022-07-10T00:13:16;17.30;43.60
8422;DHT22;4248;48.196;10.924;2022-07-10T00:15:41;17.30;43.40
8422;DHT22;4248;48.196;10.924;2022-07-10T00:18:07;17.30;43.50
8422;DHT22;4248;48.196;10.924;2022-07-10T00:20:32;17.20;43.40
8422;DHT22;4248;48.196;10.924;2022-07-10T00:22:59;17.20;43.40
8422;DHT22;4248;48.196;10.924;2022-07-10T00:25:24;17.30;43.20
8422;DHT22;4248;48.196;10.924;2022-07-10T00:27:50;17.30;42.80
8422;DHT22;4248;48.196;10.924;2022-07-10T00:30:15;17.30;42.70
8422;DHT22;4248;48.196;10.924;2022-07-10T00:32:41;17.30;42.80
8422;DHT22;4248;48.196;10.924;2022-07-10T00:35:07;17.30;42.60
8422;DHT22;4248;48.196;10.924;2022-07-10T00:37:33;17.40;42.50
8422;DHT22;4248;48.196;10.924;2022-07-10T00:39:59;17.50;42.50
8422;DHT22;4248;48.196;10.924;2022-07-10T00:42:25;17.50;42.60
8422;DHT22;4248;48.196;10.924;2022-07-10T00:44:51;17.50;42.70
8422;DHT22;4248;48.196;10.924;2022-07-10T00:47:17;17.50;43.10
8422;DHT22;4248;48.196;10.924;2022-07-10T00:49:45;17.50;43.40
8422;DHT22;4248;48.196;10.924;2022-07-10T00:52:14;17.50;43.50
8422;DHT22;4248;48.196;10.924;2022-07-10T00:54:44;17.50;43.70
8422;DHT22;4248;48.196;10.924;2022-07-10T00:57:10;17.50;43.90
8422;DHT22;4248;48.196;10.924;2022-07-10T00:59:37;17.50;44.10
8422;DHT22;4248;48.196;10.924;2022-07-10T01:02:04;17.50;44.30
8422;DHT22;4248;48.196;10.924;2022-07-10T01:04:30;17.30;45.20
8422;DHT22;4248;48.196;10.924;2022-07-10T01:06:56;17.00;47.00
8422;DHT22;4248;48.196;10.924;2022-07-10T01:09:22;16.90;47.20
8422;DHT22;4248;48.196;10.924;2022-07-10T01:11:48;16.80;47.50
8422;DHT22;4248;48.196;10.924;2022-07-10T01:14:17;16.90;47.30
8422;DHT22;4248;48.196;10.924;2022-07-10T01:16:43;17.00;47.10
8422;DHT22;4248;48.196;10.924;2022-07-10T01:19:09;17.00;46.90
8422;DHT22;4248;48.196;10.924;2022-07-10T01:21:36;17.00;47.00
8422;DHT22;4248;48.196;10.924;2022-07-10T01:24:07;17.00;47.10
8422;DHT22;4248;48.196;10.924;2022-07-10T01:26:34;17.00;47.60
8422;DHT22;4248;48.196;10.924;2022-07-10T01:29:03;17.00;47.70
8422;DHT22;4248;48.196;10.924;2022-07-10T01:31:29;17.00;48.10
8422;DHT22;4248;48.196;10.924;2022-07-10T01:33:56;16.90;48.30
8422;DHT22;4248;48.196;10.924;2022-07-10T01:36:22;16.90;48.70
8422;DHT22;4248;48.196;10.924;2022-07-10T01:38:51;16.90;49.00
8422;DHT22;4248;48.196;10.924;2022-07-10T01:41:16;16.80;49.20
8422;DHT22;4248;48.196;10.924;2022-07-10T01:43:42;16.80;49.40
8422;DHT22;4248;48.196;10.924;2022-07-10T01:46:10;16.80;49.70
8422;DHT22;4248;48.196;10.924;2022-07-10T01:48:37;16.70;50.10
8422;DHT22;4248;48.196;10.924;2022-07-10T01:51:04;16.70;50.50
8422;DHT22;4248;48.196;10.924;2022-07-10T01:53:30;16.70;50.60
8422;DHT22;4248;48.196;10.924;2022-07-10T01:55:56;16.70;50.90
8422;DHT22;4248;48.196;10.924;2022-07-10T01:58:22;16.70;51.10
8422;DHT22;4248;48.196;10.924;2022-07-10T02:00:48;16.70;51.30
8422;DHT22;4248;48.196;10.924;2022-07-10T02:03:13;16.70;51.70
8422;DHT22;4248;48.196;10.924;2022-07-10T02:05:58;16.60;51.90
8422;DHT22;4248;48.196;10.924;2022-07-10T02:08:23;16.60;52.30
8422;DHT22;4248;48.196;10.924;2022-07-10T02:10:49;16.50;52.60
8422;DHT22;4248;48.196;10.924;2022-07-10T02:13:15;16.50;52.90
8422;DHT22;4248;48.196;10.924;2022-07-10T02:15:43;16.50;53.40
8422;DHT22;4248;48.196;10.924;2022-07-10T02:18:09;16.40;53.90
8422;DHT22;4248;48.196;10.924;2022-07-10T02:20:35;16.20;54.50
8422;DHT22;4248;48.196;10.924;2022-07-10T02:23:01;16.10;55.10
8422;DHT22;4248;48.196;10.924;2022-07-10T02:25:27;16.10;55.70
8422;DHT22;4248;48.196;10.924;2022-07-10T02:27:53;16.00;56.10
8422;DHT22;4248;48.196;10.924;2022-07-10T02:30:19;15.90;57.00
8422;DHT22;4248;48.196;10.924;2022-07-10T02:32:44;15.80;57.00
8422;DHT22;4248;48.196;10.924;2022-07-10T02:35:10;15.70;56.90
8422;DHT22;4248;48.196;10.924;2022-07-10T02:37:36;15.60;59.00
8422;DHT22;4248;48.196;10.924;2022-07-10T02:40:02;15.50;58.30
8422;DHT22;4248;48.196;10.924;2022-07-10T02:42:27;15.40;58.70
8422;DHT22;4248;48.196;10.924;2022-07-10T02:44:53;15.40;58.80
8422;DHT22;4248;48.196;10.924;2022-07-10T02:47:18;15.40;58.90
8422;DHT22;4248;48.196;10.924;2022-07-10T02:49:44;15.40;58.80
8422;DHT22;4248;48.196;10.924;2022-07-10T02:52:10;15.50;58.60
8422;DHT22;4248;48.196;10.924;2022-07-10T02:54:35;15.50;58.60
8422;DHT22;4248;48.196;10.924;2022-07-10T02:57:01;15.50;58.50
8422;DHT22;4248;48.196;10.924;2022-07-10T02:59:27;15.50;58.60
8422;DHT22;4248;48.196;10.924;2022-07-10T03:01:52;15.40;58.80
8422;DHT22;4248;48.196;10.924;2022-07-10T03:04:18;15.40;59.00
8422;DHT22;4248;48.196;10.924;2022-07-10T03:06:43;15.40;59.40
8422;DHT22;4248;48.196;10.924;2022-07-10T03:09:09;15.30;59.40
8422;DHT22;4248;48.196;10.924;2022-07-10T03:11:34;15.30;59.40
8422;DHT22;4248;48.196;10.924;2022-07-10T03:14:00;15.30;59.60
8422;DHT22;4248;48.196;10.924;2022-07-10T03:16:26;15.30;59.80
8422;DHT22;4248;48.196;10.924;2022-07-10T03:18:51;15.30;59.80
8422;DHT22;4248;48.196;10.924;2022-07-10T03:21:17;15.30;59.60
8422;DHT22;4248;48.196;10.924;2022-07-10T03:23:43;15.40;59.60
8422;DHT22;4248;48.196;10.924;2022-07-10T03:26:08;15.40;59.50
8422;DHT22;4248;48.196;10.924;2022-07-10T03:28:34;15.40;59.40
8422;DHT22;4248;48.196;10.924;2022-07-10T03:30:59;15.40;59.50
8422;DHT22;4248;48.196;10.924;2022-07-10T03:33:25;15.40;59.60
8422;DHT22;4248;48.196;10.924;2022-07-10T03:35:50;15.50;59.70
8422;DHT22;4248;48.196;10.924;2022-07-10T03:38:16;15.50;59.60
8422;DHT22;4248;48.196;10.924;2022-07-10T03:40:42;15.60;59.40
8422;DHT22;4248;48.196;10.924;2022-07-10T03:43:07;15.60;59.20
8422;DHT22;4248;48.196;10.924;2022-07-10T03:45:33;15.70;59.40
8422;DHT22;4248;48.196;10.924;2022-07-10T03:47:58;15.70;59.40
8422;DHT22;4248;48.196;10.924;2022-07-10T03:50:24;15.70;59.50
8422;DHT22;4248;48.196;10.924;2022-07-10T03:52:50;15.70;59.50
8422;DHT22;4248;48.196;10.924;2022-07-10T03:55:16;15.70;59.80
8422;DHT22;4248;48.196;10.924;2022-07-10T03:57:41;15.80;60.00
8422;DHT22;4248;48.196;10.924;2022-07-10T04:00:20;15.80;60.00
8422;DHT22;4248;48.196;10.924;2022-07-10T04:02:47;15.90;59.70
8422;DHT22;4248;48.196;10.924;2022-07-10T04:05:14;16.00;59.70
8422;DHT22;4248;48.196;10.924;2022-07-10T04:07:39;16.10;59.40
8422;DHT22;4248;48.196;10.924;2022-07-10T04:10:05;16.20;59.30
8422;DHT22;4248;48.196;10.924;2022-07-10T04:12:31;16.30;59.30
8422;DHT22;4248;48.196;10.924;2022-07-10T04:14:57;16.30;59.10
8422;DHT22;4248;48.196;10.924;2022-07-10T04:17:22;16.30;59.20
8422;DHT22;4248;48.196;10.924;2022-07-10T04:19:48;16.30;59.40
8422;DHT22;4248;48.196;10.924;2022-07-10T04:22:13;16.30;59.40
8422;DHT22;4248;48.196;10.924;2022-07-10T04:24:39;16.40;59.40
8422;DHT22;4248;48.196;10.924;2022-07-10T04:27:05;16.40;59.30
8422;DHT22;4248;48.196;10.924;2022-07-10T04:29:32;16.50;59.20
8422;DHT22;4248;48.196;10.924;2022-07-10T04:31:57;16.50;58.90
8422;DHT22;4248;48.196;10.924;2022-07-10T04:34:23;16.50;58.80
8422;DHT22;4248;48.196;10.924;2022-07-10T04:36:49;16.60;58.80
8422;DHT22;4248;48.196;10.924;2022-07-10T04:39:14;16.60;58.50
8422;DHT22;4248;48.196;10.924;2022-07-10T04:41:40;16.70;57.80
8422;DHT22;4248;48.196;10.924;2022-07-10T04:44:05;16.70;57.80
8422;DHT22;4248;48.196;10.924;2022-07-10T04:46:31;16.70;57.80
8422;DHT22;4248;48.196;10.924;2022-07-10T04:48:57;16.70;57.90
8422;DHT22;4248;48.196;10.924;2022-07-10T04:51:22;16.70;58.00
8422;DHT22;4248;48.196;10.924;2022-07-10T04:53:48;16.70;58.10
8422;DHT22;4248;48.196;10.924;2022-07-10T04:56:14;16.60;58.30
8422;DHT22;4248;48.196;10.924;2022-07-10T04:58:40;16.60;58.40
8422;DHT22;4248;48.196;10.924;2022-07-10T05:01:05;16.50;58.70
8422;DHT22;4248;48.196;10.924;2022-07-10T05:03:31;16.50;58.70
8422;DHT22;4248;48.196;10.924;2022-07-10T05:05:57;16.50;58.80
8422;DHT22;4248;48.196;10.924;2022-07-10T05:08:22;16.40;59.00
8422;DHT22;4248;48.196;10.924;2022-07-10T05:10:48;16.30;59.50
8422;DHT22;4248;48.196;10.924;2022-07-10T05:13:13;16.10;60.30
8422;DHT22;4248;48.196;10.924;2022-07-10T05:15:39;16.00;60.20
8422;DHT22;4248;48.196;10.924;2022-07-10T05:18:04;16.00;61.10
8422;DHT22;4248;48.196;10.924;2022-07-10T05:20:30;16.00;61.00
8422;DHT22;4248;48.196;10.924;2022-07-10T05:22:56;16.10;61.70
8422;DHT22;4248;48.196;10.924;2022-07-10T05:25:22;16.10;61.00
8422;DHT22;4248;48.196;10.924;2022-07-10T05:27:48;16.00;62.30
8422;DHT22;4248;48.196;10.924;2022-07-10T05:30:13;16.10;61.00
8422;DHT22;4248;48.196;10.924;2022-07-10T05:32:43;16.20;60.40
8422;DHT22;4248;48.196;10.924;2022-07-10T05:35:09;16.20;60.50
8422;DHT22;4248;48.196;10.924;2022-07-10T05:37:34;16.30;60.00
8422;DHT22;4248;48.196;10.924;2022-07-10T05:40:00;16.20;61.10
8422;DHT22;4248;48.196;10.924;2022-07-10T05:42:25;16.20;60.00
8422;DHT22;4248;48.196;10.924;2022-07-10T05:44:51;16.20;60.20
8422;DHT22;4248;48.196;10.924;2022-07-10T05:47:17;16.20;60.60
8422;DHT22;4248;48.196;10.924;2022-07-10T05:49:42;16.20;60.40
8422;DHT22;4248;48.196;10.924;2022-07-10T05:52:08;16.40;60.00
8422;DHT22;4248;48.196;10.924;2022-07-10T05:54:33;16.50;59.80
8422;DHT22;4248;48.196;10.924;2022-07-10T05:56:59;16.40;60.00
8422;DHT22;4248;48.196;10.924;2022-07-10T05:59:25;16.40;60.00
8422;DHT22;4248;48.196;10.924;2022-07-10T06:01:50;16.40;59.80
8422;DHT22;4248;48.196;10.924;2022-07-10T06:04:16;16.30;59.70
8422;DHT22;4248;48.196;10.924;2022-07-10T06:06:42;16.20;59.90
8422;DHT22;4248;48.196;10.924;2022-07-10T06:09:07;16.20;59.90
8422;DHT22;4248;48.196;10.924;2022-07-10T06:11:33;16.10;60.20
8422;DHT22;4248;48.196;10.924;2022-07-10T06:13:59;16.00;60.60
8422;DHT22;4248;48.196;10.924;2022-07-10T06:16:25;16.00;60.80
8422;DHT22;4248;48.196;10.924;2022-07-10T06:18:51;16.00;60.80
8422;DHT22;4248;48.196;10.924;2022-07-10T06:21:16;16.20;60.00
8422;DHT22;4248;48.196;10.924;2022-07-10T06:23:47;16.50;59.70
8422;DHT22;4248;48.196;10.924;2022-07-10T06:26:12;16.70;59.10
8422;DHT22;4248;48.196;10.924;2022-07-10T06:28:38;16.90;58.20
8422;DHT22;4248;48.196;10.924;2022-07-10T06:31:04;17.30;58.40
8422;DHT22;4248;48.196;10.924;2022-07-10T06:33:31;17.60;56.60
8422;DHT22;4248;48.196;10.924;2022-07-10T06:35:58;17.90;55.70
8422;DHT22;4248;48.196;10.924;2022-07-10T06:38:23;18.20;55.20
8422;DHT22;4248;48.196;10.924;2022-07-10T06:40:50;18.70;54.00
8422;DHT22;4248;48.196;10.924;2022-07-10T06:43:16;18.80;52.30
8422;DHT22;4248;48.196;10.924;2022-07-10T06:45:42;18.60;52.00
8422;DHT22;4248;48.196;10.924;2022-07-10T06:48:08;18.40;52.50
8422;DHT22;4248;48.196;10.924;2022-07-10T06:50:33;18.30;52.20
8422;DHT22;4248;48.196;10.924;2022-07-10T06:53:01;18.40;51.90
8422;DHT22;4248;48.196;10.924;2022-07-10T06:55:27;18.60;51.40
8422;DHT22;4248;48.196;10.924;2022-07-10T06:57:54;19.00;50.60
8422;DHT22;4248;48.196;10.924;2022-07-10T07:00:20;19.50;49.30
8422;DHT22;4248;48.196;10.924;2022-07-10T07:02:46;19.70;47.40
8422;DHT22;4248;48.196;10.924;2022-07-10T07:05:12;19.70;47.40
8422;DHT22;4248;48.196;10.924;2022-07-10T07:07:37;19.50;47.20
8422;DHT22;4248;48.196;10.924;2022-07-10T07:10:04;19.00;47.50
8422;DHT22;4248;48.196;10.924;2022-07-10T07:12:30;18.90;46.70
8422;DHT22;4248;48.196;10.924;2022-07-10T07:14:56;18.80;47.70
8422;DHT22;4248;48.196;10.924;2022-07-10T07:17:21;18.80;46.60
8422;DHT22;4248;48.196;10.924;2022-07-10T07:19:51;19.20;45.80
8422;DHT22;4248;48.196;10.924;2022-07-10T07:22:36;19.40;44.70
8422;DHT22;4248;48.196;10.924;2022-07-10T07:25:21;19.00;43.90
8422;DHT22;4248;48.196;10.924;2022-07-10T07:27:47;18.80;44.80
8422;DHT22;4248;48.196;10.924;2022-07-10T07:30:14;18.80;45.20
8422;DHT22;4248;48.196;10.924;2022-07-10T07:32:41;19.10;44.30
8422;DHT22;4248;48.196;10.924;2022-07-10T07:35:08;19.10;42.80
8422;DHT22;4248;48.196;10.924;2022-07-10T07:37:38;19.00;42.90
8422;DHT22;4248;48.196;10.924;2022-07-10T07:40:05;19.10;42.80
8422;DHT22;4248;48.196;10.924;2022-07-10T07:42:31;19.30;42.60
8422;DHT22;4248;48.196;10.924;2022-07-10T07:44:57;19.60;42.40
8422;DHT22;4248;48.196;10.924;2022-07-10T07:47:23;19.60;42.10
8422;DHT22;4248;48.196;10.924;2022-07-10T07:49:48;19.90;41.30
8422;DHT22;4248;48.196;10.924;2022-07-10T07:52:14;19.70;39.80
8422;DHT22;4248;48.196;10.924;2022-07-10T07:54:40;19.80;40.20
8422;DHT22;4248;48.196;10.924;2022-07-10T07:57:05;19.60;40.40
8422;DHT22;4248;48.196;10.924;2022-07-10T07:59:31;19.50;39.90
8422;DHT22;4248;48.196;10.924;2022-07-10T08:01:57;19.50;39.90
8422;DHT22;4248;48.196;10.924;2022-07-10T08:04:22;19.40;39.30
8422;DHT22;4248;48.196;10.924;2022-07-10T08:06:48;19.30;39.50
8422;DHT22;4248;48.196;10.924;2022-07-10T08:09:18;19.40;39.30
8422;DHT22;4248;48.196;10.924;2022-07-10T08:11:44;19.80;38.60
8422;DHT22;4248;48.196;10.924;2022-07-10T08:14:10;20.20;37.40
8422;DHT22;4248;48.196;10.924;2022-07-10T08:16:35;20.30;36.70
8422;DHT22;4248;48.196;10.924;2022-07-10T08:19:01;20.20;34.70
8422;DHT22;4248;48.196;10.924;2022-07-10T08:21:27;19.90;34.90
8422;DHT22;4248;48.196;10.924;2022-07-10T08:23:52;19.60;35.50
8422;DHT22;4248;48.196;10.924;2022-07-10T08:26:19;19.20;36.60
8422;DHT22;4248;48.196;10.924;2022-07-10T08:28:45;19.10;37.10
8422;DHT22;4248;48.196;10.924;2022-07-10T08:31:11;19.20;37.20
8422;DHT22;4248;48.196;10.924;2022-07-10T08:33:36;19.30;37.20
8422;DHT22;4248;48.196;10.924;2022-07-10T08:36:03;19.80;36.80
8422;DHT22;4248;48.196;10.924;2022-07-10T08:38:29;20.00;36.10
8422;DHT22;4248;48.196;10.924;2022-07-10T08:40:56;20.00;34.00
8422;DHT22;4248;48.196;10.924;2022-07-10T08:43:23;19.60;34.80
8422;DHT22;4248;48.196;10.924;2022-07-10T08:45:50;20.10;34.80
8422;DHT22;4248;48.196;10.924;2022-07-10T08:48:22;20.70;34.30
8422;DHT22;4248;48.196;10.924;2022-07-10T08:50:52;21.00;32.30
8422;DHT22;4248;48.196;10.924;2022-07-10T08:53:29;21.00;31.40
8422;DHT22;4248;48.196;10.924;2022-07-10T08:55:55;20.60;31.20
8422;DHT22;4248;48.196;10.924;2022-07-10T08:58:23;20.00;30.30
8422;DHT22;4248;48.196;10.924;2022-07-10T09:00:48;20.00;32.00
8422;DHT22;4248;48.196;10.924;2022-07-10T09:03:14;20.30;31.20
8422;DHT22;4248;48.196;10.924;2022-07-10T09:05:40;20.40;31.30
8422;DHT22;4248;48.196;10.924;2022-07-10T09:08:30;20.50;30.30
8422;DHT22;4248;48.196;10.924;2022-07-10T09:11:17;20.70;29.70
8422;DHT22;4248;48.196;10.924;2022-07-10T09:14:10;20.40;28.30
8422;DHT22;4248;48.196;10.924;2022-07-10T09:16:44;21.00;29.00
8422;DHT22;4248;48.196;10.924;2022-07-10T09:19:25;21.20;27.80
8422;DHT22;4248;48.196;10.924;2022-07-10T09:21:55;21.40;28.00
8422;DHT22;4248;48.196;10.924;2022-07-10T09:24:25;22.00;27.20
8422;DHT22;4248;48.196;10.924;2022-07-10T09:29:22;22.30;25.90
8422;DHT22;4248;48.196;10.924;2022-07-10T09:31:56;21.70;25.10
8422;DHT22;4248;48.196;10.924;2022-07-10T09:34:54;21.10;25.60
8422;DHT22;4248;48.196;10.924;2022-07-10T09:37:40;20.30;26.60
8422;DHT22;4248;48.196;10.924;2022-07-10T09:40:08;20.40;27.50
8422;DHT22;4248;48.196;10.924;2022-07-10T09:47:42;21.70;25.50
8422;DHT22;4248;48.196;10.924;2022-07-10T09:50:37;21.50;26.40
8422;DHT22;4248;48.196;10.924;2022-07-10T09:53:04;21.20;26.10
8422;DHT22;4248;48.196;10.924;2022-07-10T09:55:37;21.10;25.80
8422;DHT22;4248;48.196;10.924;2022-07-10T09:58:07;20.80;25.80
8422;DHT22;4248;48.196;10.924;2022-07-10T10:00:40;21.30;25.70
8422;DHT22;4248;48.196;10.924;2022-07-10T10:03:08;21.50;25.70
8422;DHT22;4248;48.196;10.924;2022-07-10T10:05:53;21.80;25.50
8422;DHT22;4248;48.196;10.924;2022-07-10T10:08:24;21.50;23.90
8422;DHT22;4248;48.196;10.924;2022-07-10T10:10:51;21.40;24.20
8422;DHT22;4248;48.196;10.924;2022-07-10T10:13:21;21.90;23.80
8422;DHT22;4248;48.196;10.924;2022-07-10T10:15:49;22.10;23.90
8422;DHT22;4248;48.196;10.924;2022-07-10T10:18:17;22.10;23.90
8422;DHT22;4248;48.196;10.924;2022-07-10T10:20:45;22.10;23.90
8422;DHT22;4248;48.196;10.924;2022-07-10T10:23:17;21.80;23.70
8422;DHT22;4248;48.196;10.924;2022-07-10T10:25:43;21.90;23.50
8422;DHT22;4248;48.196;10.924;2022-07-10T10:28:10;21.70;23.60
8422;DHT22;4248;48.196;10.924;2022-07-10T10:30:38;22.30;23.40
8422;DHT22;4248;48.196;10.924;2022-07-10T10:35:56;22.00;21.90
8422;DHT22;4248;48.196;10.924;2022-07-10T10:38:21;20.90;23.10
8422;DHT22;4248;48.196;10.924;2022-07-10T10:40:47;20.70;24.70
8422;DHT22;4248;48.196;10.924;2022-07-10T10:43:21;20.70;24.10
8422;DHT22;4248;48.196;10.924;2022-07-10T10:45:49;21.40;23.40
8422;DHT22;4248;48.196;10.924;2022-07-10T10:48:18;21.90;22.80
8422;DHT22;4248;48.196;10.924;2022-07-10T10:50:48;22.60;22.00
8422;DHT22;4248;48.196;10.924;2022-07-10T10:53:28;23.10;21.70
8422;DHT22;4248;48.196;10.924;2022-07-10T10:58:46;22.10;20.10
8422;DHT22;4248;48.196;10.924;2022-07-10T11:06:47;21.10;21.90
8422;DHT22;4248;48.196;10.924;2022-07-10T11:12:08;21.60;20.90
8422;DHT22;4248;48.196;10.924;2022-07-10T11:14:45;21.60;20.00
8422;DHT22;4248;48.196;10.924;2022-07-10T11:17:10;21.80;20.30
8422;DHT22;4248;48.196;10.924;2022-07-10T11:19:36;22.50;20.40
8422;DHT22;4248;48.196;10.924;2022-07-10T11:28:05;22.80;18.90
8422;DHT22;4248;48.196;10.924;2022-07-10T11:30:47;22.50;19.10
8422;DHT22;4248;48.196;10.924;2022-07-10T11:33:14;22.00;19.70
8422;DHT22;4248;48.196;10.924;2022-07-10T11:35:40;21.90;20.50
8422;DHT22;4248;48.196;10.924;2022-07-10T11:38:06;22.10;20.50
8422;DHT22;4248;48.196;10.924;2022-07-10T11:40:36;22.10;20.20
8422;DHT22;4248;48.196;10.924;2022-07-10T11:43:02;22.50;19.60
8422;DHT22;4248;48.196;10.924;2022-07-10T11:45:32;23.00;18.90
8422;DHT22;4248;48.196;10.924;2022-07-10T11:48:00;22.90;18.10
8422;DHT22;4248;48.196;10.924;2022-07-10T11:50:26;22.20;17.20
8422;DHT22;4248;48.196;10.924;2022-07-10T11:52:53;21.80;18.80
8422;DHT22;4248;48.196;10.924;2022-07-10T11:55:21;21.90;18.90
8422;DHT22;4248;48.196;10.924;2022-07-10T11:57:48;21.60;18.80
8422;DHT22;4248;48.196;10.924;2022-07-10T12:00:23;21.70;19.20
8422;DHT22;4248;48.196;10.924;2022-07-10T12:02:53;21.90;19.10
8422;DHT22;4248;48.196;10.924;2022-07-10T12:05:32;22.20;19.20
8422;DHT22;4248;48.196;10.924;2022-07-10T12:07:59;22.10;18.50
8422;DHT22;4248;48.196;10.924;2022-07-10T12:10:31;21.50;18.00
8422;DHT22;4248;48.196;10.924;2022-07-10T12:13:10;21.50;18.80
8422;DHT22;4248;48.196;10.924;2022-07-10T12:15:41;21.80;19.10
8422;DHT22;4248;48.196;10.924;2022-07-10T12:18:14;21.90;18.10
8422;DHT22;4248;48.196;10.924;2022-07-10T12:20:40;22.00;18.10
8422;DHT22;4248;48.196;10.924;2022-07-10T12:23:11;22.60;18.10
8422;DHT22;4248;48.196;10.924;2022-07-10T12:25:38;22.90;18.20
8422;DHT22;4248;48.196;10.924;2022-07-10T12:28:04;22.80;16.30
8422;DHT22;4248;48.196;10.924;2022-07-10T12:30:37;22.80;16.20
8422;DHT22;4248;48.196;10.924;2022-07-10T12:33:07;22.70;16.60
8422;DHT22;4248;48.196;10.924;2022-07-10T12:35:51;22.10;16.90
8422;DHT22;4248;48.196;10.924;2022-07-10T12:38:26;21.70;17.80
8422;DHT22;4248;48.196;10.924;2022-07-10T12:41:13;21.90;18.00
8422;DHT22;4248;48.196;10.924;2022-07-10T12:43:39;22.20;18.00
8422;DHT22;4248;48.196;10.924;2022-07-10T12:48:34;22.30;16.90
8422;DHT22;4248;48.196;10.924;2022-07-10T12:51:26;22.60;17.20
8422;DHT22;4248;48.196;10.924;2022-07-10T12:53:52;22.70;17.00
8422;DHT22;4248;48.196;10.924;2022-07-10T12:56:31;22.50;16.90
8422;DHT22;4248;48.196;10.924;2022-07-10T12:58:58;22.70;16.90
8422;DHT22;4248;48.196;10.924;2022-07-10T13:01:23;22.50;17.00
8422;DHT22;4248;48.196;10.924;2022-07-10T13:03:57;22.50;16.60
8422;DHT22;4248;48.196;10.924;2022-07-10T13:06:32;22.40;16.40
8422;DHT22;4248;48.196;10.924;2022-07-10T13:08:59;22.10;16.10
8422;DHT22;4248;48.196;10.924;2022-07-10T13:11:24;22.20;16.70
8422;DHT22;4248;48.196;10.924;2022-07-10T13:13:50;22.50;16.60
8422;DHT22;4248;48.196;10.924;2022-07-10T13:16:16;22.20;16.10
8422;DHT22;4248;48.196;10.924;2022-07-10T13:18:43;21.90;16.10
8422;DHT22;4248;48.196;10.924;2022-07-10T13:21:12;22.30;16.20
8422;DHT22;4248;48.196;10.924;2022-07-10T13:23:38;22.60;15.80
8422;DHT22;4248;48.196;10.924;2022-07-10T13:26:05;22.60;15.70
8422;DHT22;4248;48.196;10.924;2022-07-10T13:28:33;22.20;15.90
8422;DHT22;4248;48.196;10.924;2022-07-10T13:30:59;21.90;16.00
8422;DHT22;4248;48.196;10.924;2022-07-10T13:33:25;21.90;15.60
8422;DHT22;4248;48.196;10.924;2022-07-10T13:35:51;21.90;15.60
8422;DHT22;4248;48.196;10.924;2022-07-10T13:38:17;22.00;15.50
8422;DHT22;4248;48.196;10.924;2022-07-10T13:40:44;22.10;15.60
8422;DHT22;4248;48.196;10.924;2022-07-10T13:43:11;22.30;15.70
8422;DHT22;4248;48.196;10.924;2022-07-10T13:45:38;22.30;14.90
8422;DHT22;4248;48.196;10.924;2022-07-10T13:48:08;22.10;15.20
8422;DHT22;4248;48.196;10.924;2022-07-10T13:50:37;22.20;15.70
8422;DHT22;4248;48.196;10.924;2022-07-10T13:53:02;22.20;15.40
8422;DHT22;4248;48.196;10.924;2022-07-10T13:55:28;22.00;15.00
8422;DHT22;4248;48.196;10.924;2022-07-10T13:57:54;21.60;15.40
8422;DHT22;4248;48.196;10.924;2022-07-10T14:00:19;21.50;16.10
8422;DHT22;4248;48.196;10.924;2022-07-10T14:02:45;21.10;16.40
8422;DHT22;4248;48.196;10.924;2022-07-10T14:05:11;21.00;17.30
8422;DHT22;4248;48.196;10.924;2022-07-10T14:07:36;21.10;17.50
8422;DHT22;4248;48.196;10.924;2022-07-10T14:10:02;21.20;17.10
8422;DHT22;4248;48.196;10.924;2022-07-10T14:12:28;21.60;17.00
8422;DHT22;4248;48.196;10.924;2022-07-10T14:14:54;22.00;15.70
8422;DHT22;4248;48.196;10.924;2022-07-10T14:17:20;22.30;15.50
8422;DHT22;4248;48.196;10.924;2022-07-10T14:19:46;22.30;14.20
8422;DHT22;4248;48.196;10.924;2022-07-10T14:22:12;22.20;14.90
8422;DHT22;4248;48.196;10.924;2022-07-10T14:24:37;22.20;15.30
8422;DHT22;4248;48.196;10.924;2022-07-10T14:27:03;22.00;14.20
8422;DHT22;4248;48.196;10.924;2022-07-10T14:29:29;21.70;14.80
8422;DHT22;4248;48.196;10.924;2022-07-10T14:31:54;21.30;15.30
8422;DHT22;4248;48.196;10.924;2022-07-10T14:34:20;21.40;15.70
8422;DHT22;4248;48.196;10.924;2022-07-10T14:36:50;21.60;15.80
8422;DHT22;4248;48.196;10.924;2022-07-10T14:39:15;21.70;16.30
8422;DHT22;4248;48.196;10.924;2022-07-10T14:41:41;21.50;14.90
8422;DHT22;4248;48.196;10.924;2022-07-10T14:44:06;21.30;15.60
8422;DHT22;4248;48.196;10.924;2022-07-10T14:46:33;21.20;15.80
8422;DHT22;4248;48.196;10.924;2022-07-10T14:48:59;21.40;16.10
8422;DHT22;4248;48.196;10.924;2022-07-10T14:51:25;21.40;15.70
8422;DHT22;4248;48.196;10.924;2022-07-10T14:53:51;21.30;15.50
8422;DHT22;4248;48.196;10.924;2022-07-10T14:56:16;21.40;15.70
8422;DHT22;4248;48.196;10.924;2022-07-10T14:58:43;21.40;15.20
8422;DHT22;4248;48.196;10.924;2022-07-10T15:01:08;21.40;15.30
8422;DHT22;4248;48.196;10.924;2022-07-10T15:03:34;21.40;15.20
8422;DHT22;4248;48.196;10.924;2022-07-10T15:06:00;21.60;14.80
8422;DHT22;4248;48.196;10.924;2022-07-10T15:08:26;21.50;14.50
8422;DHT22;4248;48.196;10.924;2022-07-10T15:10:52;21.30;14.20
8422;DHT22;4248;48.196;10.924;2022-07-10T15:13:18;21.20;14.90
8422;DHT22;4248;48.196;10.924;2022-07-10T15:15:43;21.10;14.80
8422;DHT22;4248;48.196;10.924;2022-07-10T15:18:10;21.10;15.40
8422;DHT22;4248;48.196;10.924;2022-07-10T15:20:36;21.20;15.30
8422;DHT22;4248;48.196;10.924;2022-07-10T15:23:05;21.00;14.90
8422;DHT22;4248;48.196;10.924;2022-07-10T15:25:31;21.00;15.20
8422;DHT22;4248;48.196;10.924;2022-07-10T15:27:56;21.30;15.20
8422;DHT22;4248;48.196;10.924;2022-07-10T15:30:22;21.50;15.00
8422;DHT22;4248;48.196;10.924;2022-07-10T15:32:48;21.40;14.70
8422;DHT22;4248;48.196;10.924;2022-07-10T15:35:14;21.50;14.90
8422;DHT22;4248;48.196;10.924;2022-07-10T15:37:40;21.70;15.20
8422;DHT22;4248;48.196;10.924;2022-07-10T15:40:05;21.50;14.80
8422;DHT22;4248;48.196;10.924;2022-07-10T15:42:32;21.50;14.90
8422;DHT22;4248;48.196;10.924;2022-07-10T15:44:58;21.30;14.40
8422;DHT22;4248;48.196;10.924;2022-07-10T15:47:23;21.20;14.90
8422;DHT22;4248;48.196;10.924;2022-07-10T15:49:49;21.00;14.50
8422;DHT22;4248;48.196;10.924;2022-07-10T15:52:15;20.90;14.60
8422;DHT22;4248;48.196;10.924;2022-07-10T15:54:40;20.90;14.80
8422;DHT22;4248;48.196;10.924;2022-07-10T15:57:07;21.00;14.80
8422;DHT22;4248;48.196;10.924;2022-07-10T15:59:33;21.10;14.60
8422;DHT22;4248;48.196;10.924;2022-07-10T16:02:00;21.20;14.70
8422;DHT22;4248;48.196;10.924;2022-07-10T16:04:26;21.20;14.90
8422;DHT22;4248;48.196;10.924;2022-07-10T16:06:53;21.20;14.90
8422;DHT22;4248;48.196;10.924;2022-07-10T16:09:19;21.10;15.00
8422;DHT22;4248;48.196;10.924;2022-07-10T16:11:45;21.10;15.20
8422;DHT22;4248;48.196;10.924;2022-07-10T16:14:11;21.00;14.80
8422;DHT22;4248;48.196;10.924;2022-07-10T16:16:38;20.80;14.10